sensor_id;sensor_type;location;lat;lon;timestamp;temperature;humidity
41256;DHT22;26989;45.524;10.938;2024-02-21T00:00:05;8.30;99.90
41256;DHT22;26989;45.524;10.938;2024-02-21T00:02:32;8.20;99.90
41256;DHT22;26989;45.524;10.938;2024-02-21T00:04:59;8.50;99.90
41256;DHT22;26989;45.524;10.938;2024-02-21T00:07:27;8.50;99.90
41256;DHT22;26989;45.524;10.938;2024-02-21T00:09:54;8.30;99.90
41256;DHT22;26989;45.524;10.938;2024-02-21T00:12:21;8.20;99.90
41256;DHT22;26989;45.524;10.938;2024-02-21T00:14:47;8.50;99.90
41256;DHT22;26989;45.524;10.938;2024-02-21T00:17:14;8.40;99.90
41256;DHT22;26989;45.524;10.938;2024-02-21T00:19:41;8.20;99.90
41256;DHT22;26989;45.524;10.938;2024-02-21T00:22:08;8.50;99.90
41256;DHT22;26989;45.524;10.938;2024-02-21T00:24:35;8.60;99.90
41256;DHT22;26989;45.524;10.938;2024-02-21T00:27:02;8.60;99.90
41256;DHT22;26989;45.524;10.938;2024-02-21T00:29:29;8.50;99.90
41256;DHT22;26989;45.524;10.938;2024-02-21T00:31:56;8.40;99.90
41256;DHT22;26989;45.524;10.938;2024-02-21T00:34:23;8.40;99.90
41256;DHT22;26989;45.524;10.938;2024-02-21T00:36:51;8.30;99.90
41256;DHT22;26989;45.524;10.938;2024-02-21T00:39:18;8.30;99.90
41256;DHT22;26989;45.524;10.938;2024-02-21T00:41:45;8.20;99.90
41256;DHT22;26989;45.524;10.938;2024-02-21T00:44:12;8.30;99.90
41256;DHT22;26989;45.524;10.938;2024-02-21T00:46:39;8.30;99.90
41256;DHT22;26989;45.524;10.938;2024-02-21T00:49:06;8.10;99.90
41256;DHT22;26989;45.524;10.938;2024-02-21T00:51:33;8.30;99.90
41256;DHT22;26989;45.524;10.938;2024-02-21T00:54:00;8.30;99.90
41256;DHT22;26989;45.524;10.938;2024-02-21T00:56:28;8.10;99.90
41256;DHT22;26989;45.524;10.938;2024-02-21T00:58:56;8.00;99.90
41256;DHT22;26989;45.524;10.938;2024-02-21T01:01:25;7.90;99.90
41256;DHT22;26989;45.524;10.938;2024-02-21T01:03:52;7.90;99.90
41256;DHT22;26989;45.524;10.938;2024-02-21T01:06:20;7.80;99.90
41256;DHT22;26989;45.524;10.938;2024-02-21T01:08:48;7.80;99.90
41256;DHT22;26989;45.524;10.938;2024-02-21T01:11:15;7.80;99.90
41256;DHT22;26989;45.524;10.938;2024-02-21T01:13:42;7.70;99.90
41256;DHT22;26989;45.524;10.938;2024-02-21T01:16:10;7.80;99.90
41256;DHT22;26989;45.524;10.938;2024-02-21T01:18:37;7.80;99.90
41256;DHT22;26989;45.524;10.938;2024-02-21T01:21:05;7.80;99.90
41256;DHT22;26989;45.524;10.938;2024-02-21T01:23:36;7.90;99.90
41256;DHT22;26989;45.524;10.938;2024-02-21T01:26:04;7.80;99.90
41256;DHT22;26989;45.524;10.938;2024-02-21T01:28:31;7.80;99.90
41256;DHT22;26989;45.524;10.938;2024-02-21T01:30:58;7.80;99.90
41256;DHT22;26989;45.524;10.938;2024-02-21T01:33:25;7.90;99.90
41256;DHT22;26989;45.524;10.938;2024-02-21T01:35:52;8.10;99.90
41256;DHT22;26989;45.524;10.938;2024-02-21T01:38:19;8.00;99.90
41256;DHT22;26989;45.524;10.938;2024-02-21T01:40:46;8.00;99.90
41256;DHT22;26989;45.524;10.938;2024-02-21T01:43:19;7.90;99.90
41256;DHT22;26989;45.524;10.938;2024-02-21T01:45:49;7.80;99.90
41256;DHT22;26989;45.524;10.938;2024-02-21T01:48:18;7.70;99.90
41256;DHT22;26989;45.524;10.938;2024-02-21T01:50:54;7.80;99.90
41256;DHT22;26989;45.524;10.938;2024-02-21T01:53:31;7.70;99.90
41256;DHT22;26989;45.524;10.938;2024-02-21T01:55:59;7.70;99.90
41256;DHT22;26989;45.524;10.938;2024-02-21T01:58:27;7.70;99.90
41256;DHT22;26989;45.524;10.938;2024-02-21T02:00:56;7.70;99.90
41256;DHT22;26989;45.524;10.938;2024-02-21T02:03:23;7.60;99.90
41256;DHT22;26989;45.524;10.938;2024-02-21T02:05:52;7.50;99.90
41256;DHT22;26989;45.524;10.938;2024-02-21T02:08:20;7.50;99.90
41256;DHT22;26989;45.524;10.938;2024-02-21T02:10:49;7.60;99.90
41256;DHT22;26989;45.524;10.938;2024-02-21T02:13:16;7.90;99.90
41256;DHT22;26989;45.524;10.938;2024-02-21T02:15:48;7.90;99.90
41256;DHT22;26989;45.524;10.938;2024-02-21T02:18:17;7.90;99.90
41256;DHT22;26989;45.524;10.938;2024-02-21T02:20:45;7.80;99.90
41256;DHT22;26989;45.524;10.938;2024-02-21T02:23:30;7.80;99.90
41256;DHT22;26989;45.524;10.938;2024-02-21T02:25:58;7.80;99.90
41256;DHT22;26989;45.524;10.938;2024-02-21T02:28:26;7.90;99.90
41256;DHT22;26989;45.524;10.938;2024-02-21T02:30:53;8.00;99.90
41256;DHT22;26989;45.524;10.938;2024-02-21T02:33:20;8.10;99.90
41256;DHT22;26989;45.524;10.938;2024-02-21T02:35:47;8.20;99.90
41256;DHT22;26989;45.524;10.938;2024-02-21T02:38:14;8.10;99.90
41256;DHT22;26989;45.524;10.938;2024-02-21T02:40:42;8.20;99.90
41256;DHT22;26989;45.524;10.938;2024-02-21T02:43:09;8.20;99.90
41256;DHT22;26989;45.524;10.938;2024-02-21T02:45:36;8.20;99.90
41256;DHT22;26989;45.524;10.938;2024-02-21T02:48:04;8.20;99.90
41256;DHT22;26989;45.524;10.938;2024-02-21T02:50:31;8.20;99.90
41256;DHT22;26989;45.524;10.938;2024-02-21T02:52:58;8.20;99.90
41256;DHT22;26989;45.524;10.938;2024-02-21T02:55:25;8.30;99.90
41256;DHT22;26989;45.524;10.938;2024-02-21T02:57:54;8.30;99.90
41256;DHT22;26989;45.524;10.938;2024-02-21T03:00:21;8.40;99.90
41256;DHT22;26989;45.524;10.938;2024-02-21T03:02:49;8.30;99.90
41256;DHT22;26989;45.524;10.938;2024-02-21T03:05:20;8.10;99.90
41256;DHT22;26989;45.524;10.938;2024-02-21T03:07:48;8.10;99.90
41256;DHT22;26989;45.524;10.938;2024-02-21T03:10:16;8.20;99.90
41256;DHT22;26989;45.524;10.938;2024-02-21T03:12:44;8.20;99.90
41256;DHT22;26989;45.524;10.938;2024-02-21T03:15:12;8.30;99.90
41256;DHT22;26989;45.524;10.938;2024-02-21T03:17:40;8.20;99.90
41256;DHT22;26989;45.524;10.938;2024-02-21T03:20:07;8.20;99.90
41256;DHT22;26989;45.524;10.938;2024-02-21T03:22:39;8.10;99.90
41256;DHT22;26989;45.524;10.938;2024-02-21T03:25:11;8.00;99.90
41256;DHT22;26989;45.524;10.938;2024-02-21T03:27:39;8.00;99.90
41256;DHT22;26989;45.524;10.938;2024-02-21T03:30:06;8.00;99.90
41256;DHT22;26989;45.524;10.938;2024-02-21T03:32:33;7.90;99.90
41256;DHT22;26989;45.524;10.938;2024-02-21T03:35:00;8.00;99.90
41256;DHT22;26989;45.524;10.938;2024-02-21T03:37:27;7.90;99.90
41256;DHT22;26989;45.524;10.938;2024-02-21T03:39:54;8.00;99.90
41256;DHT22;26989;45.524;10.938;2024-02-21T03:42:21;8.00;99.90
41256;DHT22;26989;45.524;10.938;2024-02-21T03:44:48;8.00;99.90
41256;DHT22;26989;45.524;10.938;2024-02-21T03:47:15;7.90;99.90
41256;DHT22;26989;45.524;10.938;2024-02-21T03:49:42;7.90;99.90
41256;DHT22;26989;45.524;10.938;2024-02-21T03:52:09;7.90;99.90
41256;DHT22;26989;45.524;10.938;2024-02-21T03:54:37;7.80;99.90
41256;DHT22;26989;45.524;10.938;2024-02-21T03:57:05;7.80;99.90
41256;DHT22;26989;45.524;10.938;2024-02-21T03:59:33;7.70;99.90
41256;DHT22;26989;45.524;10.938;2024-02-21T04:02:00;7.70;99.90
41256;DHT22;26989;45.524;10.938;2024-02-21T04:04:27;7.80;99.90
41256;DHT22;26989;45.524;10.938;2024-02-21T04:06:54;7.80;99.90
41256;DHT22;26989;45.524;10.938;2024-02-21T04:09:21;7.70;99.90
41256;DHT22;26989;45.524;10.938;2024-02-21T04:11:48;7.70;99.90
41256;DHT22;26989;45.524;10.938;2024-02-21T04:14:15;7.80;99.90
41256;DHT22;26989;45.524;10.938;2024-02-21T04:16:42;7.80;99.90
41256;DHT22;26989;45.524;10.938;2024-02-21T04:19:09;7.70;99.90
41256;DHT22;26989;45.524;10.938;2024-02-21T04:21:36;7.60;99.90
41256;DHT22;26989;45.524;10.938;2024-02-21T04:24:03;7.60;99.90
41256;DHT22;26989;45.524;10.938;2024-02-21T04:26:33;7.70;99.90
41256;DHT22;26989;45.524;10.938;2024-02-21T04:29:00;7.60;99.90
41256;DHT22;26989;45.524;10.938;2024-02-21T04:31:27;7.60;99.90
41256;DHT22;26989;45.524;10.938;2024-02-21T04:33:55;7.70;99.90
41256;DHT22;26989;45.524;10.938;2024-02-21T04:36:22;7.70;99.90
41256;DHT22;26989;45.524;10.938;2024-02-21T04:38:49;7.70;99.90
41256;DHT22;26989;45.524;10.938;2024-02-21T04:41:17;7.70;99.90
41256;DHT22;26989;45.524;10.938;2024-02-21T04:43:46;7.60;99.90
41256;DHT22;26989;45.524;10.938;2024-02-21T04:46:14;7.70;99.90
41256;DHT22;26989;45.524;10.938;2024-02-21T04:48:41;7.70;99.90
41256;DHT22;26989;45.524;10.938;2024-02-21T04:51:08;7.70;99.90
41256;DHT22;26989;45.524;10.938;2024-02-21T04:53:35;7.70;99.90
41256;DHT22;26989;45.524;10.938;2024-02-21T04:56:02;7.70;99.90
41256;DHT22;26989;45.524;10.938;2024-02-21T04:58:29;7.70;99.90
41256;DHT22;26989;45.524;10.938;2024-02-21T05:00:56;7.70;99.90
41256;DHT22;26989;45.524;10.938;2024-02-21T05:03:23;7.80;99.90
41256;DHT22;26989;45.524;10.938;2024-02-21T05:05:50;7.80;99.90
41256;DHT22;26989;45.524;10.938;2024-02-21T05:08:17;7.80;99.90
41256;DHT22;26989;45.524;10.938;2024-02-21T05:10:44;7.70;99.90
41256;DHT22;26989;45.524;10.938;2024-02-21T05:13:11;7.70;99.90
41256;DHT22;26989;45.524;10.938;2024-02-21T05:15:38;7.70;99.90
41256;DHT22;26989;45.524;10.938;2024-02-21T05:18:05;7.70;99.90
41256;DHT22;26989;45.524;10.938;2024-02-21T05:20:33;7.90;99.90
41256;DHT22;26989;45.524;10.938;2024-02-21T05:23:01;7.80;99.90
41256;DHT22;26989;45.524;10.938;2024-02-21T05:25:28;7.90;99.90
41256;DHT22;26989;45.524;10.938;2024-02-21T05:27:55;7.90;99.90
41256;DHT22;26989;45.524;10.938;2024-02-21T05:30:22;8.00;99.90
41256;DHT22;26989;45.524;10.938;2024-02-21T05:32:49;7.80;99.90
41256;DHT22;26989;45.524;10.938;2024-02-21T05:35:16;7.70;99.90
41256;DHT22;26989;45.524;10.938;2024-02-21T05:37:43;7.60;99.90
41256;DHT22;26989;45.524;10.938;2024-02-21T05:40:13;7.60;99.90
41256;DHT22;26989;45.524;10.938;2024-02-21T05:42:40;7.60;99.90
41256;DHT22;26989;45.524;10.938;2024-02-21T05:45:07;7.60;99.90
41256;DHT22;26989;45.524;10.938;2024-02-21T05:47:35;7.80;99.90
41256;DHT22;26989;45.524;10.938;2024-02-21T05:50:01;7.70;99.90
41256;DHT22;26989;45.524;10.938;2024-02-21T05:52:28;7.60;99.90
41256;DHT22;26989;45.524;10.938;2024-02-21T05:54:55;7.60;99.90
41256;DHT22;26989;45.524;10.938;2024-02-21T05:57:22;7.50;99.90
41256;DHT22;26989;45.524;10.938;2024-02-21T05:59:49;7.50;99.90
41256;DHT22;26989;45.524;10.938;2024-02-21T06:02:16;7.50;99.90
41256;DHT22;26989;45.524;10.938;2024-02-21T06:04:43;7.40;99.90
41256;DHT22;26989;45.524;10.938;2024-02-21T06:07:11;7.30;99.90
41256;DHT22;26989;45.524;10.938;2024-02-21T06:09:38;7.20;99.90
41256;DHT22;26989;45.524;10.938;2024-02-21T06:12:05;7.40;99.90
41256;DHT22;26989;45.524;10.938;2024-02-21T06:14:32;7.30;99.90
41256;DHT22;26989;45.524;10.938;2024-02-21T06:16:59;7.40;99.90
41256;DHT22;26989;45.524;10.938;2024-02-21T06:19:26;7.50;99.90
41256;DHT22;26989;45.524;10.938;2024-02-21T06:21:53;7.40;99.90
41256;DHT22;26989;45.524;10.938;2024-02-21T06:24:20;7.40;99.90
41256;DHT22;26989;45.524;10.938;2024-02-21T06:26:49;7.50;99.90
41256;DHT22;26989;45.524;10.938;2024-02-21T06:29:16;7.40;99.90
41256;DHT22;26989;45.524;10.938;2024-02-21T06:31:43;7.50;99.90
41256;DHT22;26989;45.524;10.938;2024-02-21T06:34:10;7.50;99.90
41256;DHT22;26989;45.524;10.938;2024-02-21T06:36:37;7.50;99.90
41256;DHT22;26989;45.524;10.938;2024-02-21T06:39:04;7.40;99.90
41256;DHT22;26989;45.524;10.938;2024-02-21T06:41:34;7.40;99.90
41256;DHT22;26989;45.524;10.938;2024-02-21T06:44:02;7.50;99.90
41256;DHT22;26989;45.524;10.938;2024-02-21T06:46:30;7.60;99.90
41256;DHT22;26989;45.524;10.938;2024-02-21T06:48:58;7.60;99.90
41256;DHT22;26989;45.524;10.938;2024-02-21T06:51:25;7.70;99.90
41256;DHT22;26989;45.524;10.938;2024-02-21T06:53:52;7.80;99.90
41256;DHT22;26989;45.524;10.938;2024-02-21T06:56:20;7.90;99.90
41256;DHT22;26989;45.524;10.938;2024-02-21T06:58:47;8.00;99.90
41256;DHT22;26989;45.524;10.938;2024-02-21T07:01:14;8.00;99.90
41256;DHT22;26989;45.524;10.938;2024-02-21T07:03:41;8.00;99.90
41256;DHT22;26989;45.524;10.938;2024-02-21T07:06:08;8.00;99.90
41256;DHT22;26989;45.524;10.938;2024-02-21T07:08:35;8.00;99.90
41256;DHT22;26989;45.524;10.938;2024-02-21T07:11:02;8.10;99.90
41256;DHT22;26989;45.524;10.938;2024-02-21T07:13:29;8.20;99.90
41256;DHT22;26989;45.524;10.938;2024-02-21T07:15:56;8.30;99.90
41256;DHT22;26989;45.524;10.938;2024-02-21T07:18:23;8.30;99.90
41256;DHT22;26989;45.524;10.938;2024-02-21T07:20:52;8.40;99.90
41256;DHT22;26989;45.524;10.938;2024-02-21T07:23:19;8.40;99.90
41256;DHT22;26989;45.524;10.938;2024-02-21T07:25:46;8.40;99.90
41256;DHT22;26989;45.524;10.938;2024-02-21T07:28:13;8.60;99.90
41256;DHT22;26989;45.524;10.938;2024-02-21T07:30:41;8.70;99.90
41256;DHT22;26989;45.524;10.938;2024-02-21T07:33:08;8.80;99.90
41256;DHT22;26989;45.524;10.938;2024-02-21T07:35:35;8.90;99.90
41256;DHT22;26989;45.524;10.938;2024-02-21T07:38:05;9.00;99.90
41256;DHT22;26989;45.524;10.938;2024-02-21T07:40:32;9.10;99.90
41256;DHT22;26989;45.524;10.938;2024-02-21T07:42:59;9.20;99.90
41256;DHT22;26989;45.524;10.938;2024-02-21T07:45:26;9.30;99.90
41256;DHT22;26989;45.524;10.938;2024-02-21T07:47:53;9.30;99.90
41256;DHT22;26989;45.524;10.938;2024-02-21T07:50:22;9.40;99.90
41256;DHT22;26989;45.524;10.938;2024-02-21T07:52:49;9.30;99.90
41256;DHT22;26989;45.524;10.938;2024-02-21T07:55:16;9.40;99.90
41256;DHT22;26989;45.524;10.938;2024-02-21T07:57:43;9.50;99.90
41256;DHT22;26989;45.524;10.938;2024-02-21T08:00:10;9.60;99.90
41256;DHT22;26989;45.524;10.938;2024-02-21T08:02:44;9.90;99.90
41256;DHT22;26989;45.524;10.938;2024-02-21T08:05:11;10.00;99.90
41256;DHT22;26989;45.524;10.938;2024-02-21T08:07:39;10.20;99.90
41256;DHT22;26989;45.524;10.938;2024-02-21T08:10:07;10.40;99.90
41256;DHT22;26989;45.524;10.938;2024-02-21T08:12:35;10.40;99.90
41256;DHT22;26989;45.524;10.938;2024-02-21T08:15:02;10.70;99.90
41256;DHT22;26989;45.524;10.938;2024-02-21T08:17:35;10.90;99.90
41256;DHT22;26989;45.524;10.938;2024-02-21T08:20:02;11.00;99.90
41256;DHT22;26989;45.524;10.938;2024-02-21T08:22:30;11.20;99.90
41256;DHT22;26989;45.524;10.938;2024-02-21T08:24:57;11.30;99.90
41256;DHT22;26989;45.524;10.938;2024-02-21T08:27:24;11.40;99.90
41256;DHT22;26989;45.524;10.938;2024-02-21T08:29:51;11.50;99.90
41256;DHT22;26989;45.524;10.938;2024-02-21T08:32:18;11.60;99.90
41256;DHT22;26989;45.524;10.938;2024-02-21T08:34:45;11.60;99.90
41256;DHT22;26989;45.524;10.938;2024-02-21T08:37:11;11.70;99.90
41256;DHT22;26989;45.524;10.938;2024-02-21T08:39:39;11.80;99.90
41256;DHT22;26989;45.524;10.938;2024-02-21T08:42:06;12.00;99.90
41256;DHT22;26989;45.524;10.938;2024-02-21T08:44:39;12.10;99.90
41256;DHT22;26989;45.524;10.938;2024-02-21T08:47:07;12.10;99.90
41256;DHT22;26989;45.524;10.938;2024-02-21T08:49:35;12.20;99.90
41256;DHT22;26989;45.524;10.938;2024-02-21T08:52:04;12.30;99.90
41256;DHT22;26989;45.524;10.938;2024-02-21T08:54:32;12.40;99.90
41256;DHT22;26989;45.524;10.938;2024-02-21T08:57:01;12.40;99.90
41256;DHT22;26989;45.524;10.938;2024-02-21T08:59:28;12.40;99.90
41256;DHT22;26989;45.524;10.938;2024-02-21T09:01:55;12.40;99.90
41256;DHT22;26989;45.524;10.938;2024-02-21T09:04:22;12.50;99.90
41256;DHT22;26989;45.524;10.938;2024-02-21T09:06:49;12.50;99.90
41256;DHT22;26989;45.524;10.938;2024-02-21T09:09:16;12.50;99.90
41256;DHT22;26989;45.524;10.938;2024-02-21T09:11:44;12.60;99.90
41256;DHT22;26989;45.524;10.938;2024-02-21T09:14:10;12.60;99.90
41256;DHT22;26989;45.524;10.938;2024-02-21T09:16:38;12.70;99.90
41256;DHT22;26989;45.524;10.938;2024-02-21T09:19:05;12.60;99.90
41256;DHT22;26989;45.524;10.938;2024-02-21T09:21:32;12.70;99.90
41256;DHT22;26989;45.524;10.938;2024-02-21T09:23:59;12.80;99.90
41256;DHT22;26989;45.524;10.938;2024-02-21T09:26:27;12.90;99.90
41256;DHT22;26989;45.524;10.938;2024-02-21T09:28:54;12.90;99.90
41256;DHT22;26989;45.524;10.938;2024-02-21T09:31:21;12.90;99.90
41256;DHT22;26989;45.524;10.938;2024-02-21T09:33:48;12.90;99.90
41256;DHT22;26989;45.524;10.938;2024-02-21T09:36:15;12.90;99.90
41256;DHT22;26989;45.524;10.938;2024-02-21T09:38:42;12.90;99.90
41256;DHT22;26989;45.524;10.938;2024-02-21T09:41:17;13.00;99.90
41256;DHT22;26989;45.524;10.938;2024-02-21T09:43:52;13.00;99.90
41256;DHT22;26989;45.524;10.938;2024-02-21T09:46:35;13.00;99.90
41256;DHT22;26989;45.524;10.938;2024-02-21T09:51:51;13.00;99.90
41256;DHT22;26989;45.524;10.938;2024-02-21T09:54:21;13.00;99.90
41256;DHT22;26989;45.524;10.938;2024-02-21T09:56:48;13.10;99.90
41256;DHT22;26989;45.524;10.938;2024-02-21T09:59:16;13.10;99.90
41256;DHT22;26989;45.524;10.938;2024-02-21T10:01:43;13.00;99.90
41256;DHT22;26989;45.524;10.938;2024-02-21T10:04:11;13.10;99.90
41256;DHT22;26989;45.524;10.938;2024-02-21T10:06:38;13.10;99.90
41256;DHT22;26989;45.524;10.938;2024-02-21T10:09:06;13.10;99.90
41256;DHT22;26989;45.524;10.938;2024-02-21T10:11:33;13.20;99.90
41256;DHT22;26989;45.524;10.938;2024-02-21T10:14:07;13.30;99.90
41256;DHT22;26989;45.524;10.938;2024-02-21T10:16:35;13.20;99.90
41256;DHT22;26989;45.524;10.938;2024-02-21T10:19:04;13.20;99.90
41256;DHT22;26989;45.524;10.938;2024-02-21T10:21:31;13.30;99.90
41256;DHT22;26989;45.524;10.938;2024-02-21T10:23:59;13.30;99.90
41256;DHT22;26989;45.524;10.938;2024-02-21T10:26:25;13.30;99.90
41256;DHT22;26989;45.524;10.938;2024-02-21T10:28:52;13.30;99.90
41256;DHT22;26989;45.524;10.938;2024-02-21T10:31:26;13.20;99.90
41256;DHT22;26989;45.524;10.938;2024-02-21T10:33:58;13.30;99.90
41256;DHT22;26989;45.524;10.938;2024-02-21T10:36:25;13.30;99.90
41256;DHT22;26989;45.524;10.938;2024-02-21T10:38:53;13.30;99.90
41256;DHT22;26989;45.524;10.938;2024-02-21T10:41:22;13.30;99.90
41256;DHT22;26989;45.524;10.938;2024-02-21T10:43:52;13.30;99.90
41256;DHT22;26989;45.524;10.938;2024-02-21T10:46:22;13.30;99.90
41256;DHT22;26989;45.524;10.938;2024-02-21T10:49:04;13.40;99.90
41256;DHT22;26989;45.524;10.938;2024-02-21T10:51:34;13.40;99.90
41256;DHT22;26989;45.524;10.938;2024-02-21T10:57:17;13.70;99.90
41256;DHT22;26989;45.524;10.938;2024-02-21T10:59:45;13.70;99.90
41256;DHT22;26989;45.524;10.938;2024-02-21T11:02:14;13.60;99.90
41256;DHT22;26989;45.524;10.938;2024-02-21T11:04:43;13.60;99.90
41256;DHT22;26989;45.524;10.938;2024-02-21T11:07:11;13.60;99.90
41256;DHT22;26989;45.524;10.938;2024-02-21T11:09:38;13.60;99.90
41256;DHT22;26989;45.524;10.938;2024-02-21T11:12:06;13.70;99.90
41256;DHT22;26989;45.524;10.938;2024-02-21T11:14:34;13.70;99.90
41256;DHT22;26989;45.524;10.938;2024-02-21T11:17:19;13.80;99.90
41256;DHT22;26989;45.524;10.938;2024-02-21T11:19:48;13.80;99.90
41256;DHT22;26989;45.524;10.938;2024-02-21T11:22:19;13.90;99.90
41256;DHT22;26989;45.524;10.938;2024-02-21T11:24:50;13.90;99.90
41256;DHT22;26989;45.524;10.938;2024-02-21T11:27:22;13.80;99.90
41256;DHT22;26989;45.524;10.938;2024-02-21T11:29:57;13.80;99.90
41256;DHT22;26989;45.524;10.938;2024-02-21T11:32:26;13.90;99.90
41256;DHT22;26989;45.524;10.938;2024-02-21T11:35:04;13.90;99.90
41256;DHT22;26989;45.524;10.938;2024-02-21T11:37:35;14.00;99.90
41256;DHT22;26989;45.524;10.938;2024-02-21T11:40:05;13.90;99.90
41256;DHT22;26989;45.524;10.938;2024-02-21T11:42:34;14.10;99.90
41256;DHT22;26989;45.524;10.938;2024-02-21T11:45:01;14.10;99.90
41256;DHT22;26989;45.524;10.938;2024-02-21T11:47:29;14.20;99.90
41256;DHT22;26989;45.524;10.938;2024-02-21T11:49:56;14.10;99.90
41256;DHT22;26989;45.524;10.938;2024-02-21T11:52:25;14.20;99.90
41256;DHT22;26989;45.524;10.938;2024-02-21T11:54:54;14.20;99.90
41256;DHT22;26989;45.524;10.938;2024-02-21T11:57:22;14.20;99.90
41256;DHT22;26989;45.524;10.938;2024-02-21T11:59:51;14.30;99.90
41256;DHT22;26989;45.524;10.938;2024-02-21T12:02:25;14.30;99.90
41256;DHT22;26989;45.524;10.938;2024-02-21T12:04:52;14.40;99.90
41256;DHT22;26989;45.524;10.938;2024-02-21T12:07:22;14.40;99.90
41256;DHT22;26989;45.524;10.938;2024-02-21T12:09:51;14.40;99.90
41256;DHT22;26989;45.524;10.938;2024-02-21T12:12:20;14.50;99.90
41256;DHT22;26989;45.524;10.938;2024-02-21T12:14:57;14.40;99.90
41256;DHT22;26989;45.524;10.938;2024-02-21T12:17:25;14.40;99.90
41256;DHT22;26989;45.524;10.938;2024-02-21T12:19:52;14.40;99.90
41256;DHT22;26989;45.524;10.938;2024-02-21T12:22:19;14.60;99.90
41256;DHT22;26989;45.524;10.938;2024-02-21T12:24:46;14.70;99.90
41256;DHT22;26989;45.524;10.938;2024-02-21T12:27:15;14.80;99.90
41256;DHT22;26989;45.524;10.938;2024-02-21T12:29:42;14.80;99.90
41256;DHT22;26989;45.524;10.938;2024-02-21T12:32:09;14.90;99.90
41256;DHT22;26989;45.524;10.938;2024-02-21T12:34:36;14.80;99.90
41256;DHT22;26989;45.524;10.938;2024-02-21T12:37:19;14.90;99.90
41256;DHT22;26989;45.524;10.938;2024-02-21T12:39:47;14.90;99.90
41256;DHT22;26989;45.524;10.938;2024-02-21T12:42:15;14.80;99.90
41256;DHT22;26989;45.524;10.938;2024-02-21T12:44:42;14.90;99.90
41256;DHT22;26989;45.524;10.938;2024-02-21T12:47:09;14.90;99.90
41256;DHT22;26989;45.524;10.938;2024-02-21T12:49:37;14.90;99.90
41256;DHT22;26989;45.524;10.938;2024-02-21T12:52:09;15.00;99.90
41256;DHT22;26989;45.524;10.938;2024-02-21T12:54:37;15.10;99.90
41256;DHT22;26989;45.524;10.938;2024-02-21T12:57:04;15.20;99.90
41256;DHT22;26989;45.524;10.938;2024-02-21T12:59:31;15.30;99.90
41256;DHT22;26989;45.524;10.938;2024-02-21T13:01:58;15.20;99.90
41256;DHT22;26989;45.524;10.938;2024-02-21T13:04:25;15.20;99.90
41256;DHT22;26989;45.524;10.938;2024-02-21T13:06:53;15.20;99.90
41256;DHT22;26989;45.524;10.938;2024-02-21T13:09:20;15.20;99.90
41256;DHT22;26989;45.524;10.938;2024-02-21T13:11:47;15.30;99.90
41256;DHT22;26989;45.524;10.938;2024-02-21T13:14:14;15.10;99.90
41256;DHT22;26989;45.524;10.938;2024-02-21T13:16:41;15.20;99.90
41256;DHT22;26989;45.524;10.938;2024-02-21T13:19:08;15.10;99.90
41256;DHT22;26989;45.524;10.938;2024-02-21T13:21:36;15.30;99.90
41256;DHT22;26989;45.524;10.938;2024-02-21T13:24:03;15.40;99.90
41256;DHT22;26989;45.524;10.938;2024-02-21T13:26:32;15.50;99.90
41256;DHT22;26989;45.524;10.938;2024-02-21T13:29:00;15.50;99.90
41256;DHT22;26989;45.524;10.938;2024-02-21T13:31:27;15.30;99.90
41256;DHT22;26989;45.524;10.938;2024-02-21T13:33:54;15.40;99.90
41256;DHT22;26989;45.524;10.938;2024-02-21T13:36:21;15.30;99.90
41256;DHT22;26989;45.524;10.938;2024-02-21T13:38:48;15.30;99.90
41256;DHT22;26989;45.524;10.938;2024-02-21T13:41:18;15.20;99.90
41256;DHT22;26989;45.524;10.938;2024-02-21T13:43:45;14.90;99.90
41256;DHT22;26989;45.524;10.938;2024-02-21T13:46:13;15.10;99.90
41256;DHT22;26989;45.524;10.938;2024-02-21T13:48:40;15.00;99.90
41256;DHT22;26989;45.524;10.938;2024-02-21T13:51:08;15.00;99.90
41256;DHT22;26989;45.524;10.938;2024-02-21T13:53:35;15.10;99.90
41256;DHT22;26989;45.524;10.938;2024-02-21T13:56:02;15.10;99.90
41256;DHT22;26989;45.524;10.938;2024-02-21T13:58:29;15.20;99.90
41256;DHT22;26989;45.524;10.938;2024-02-21T14:00:56;15.20;99.90
41256;DHT22;26989;45.524;10.938;2024-02-21T14:03:23;15.30;99.90
41256;DHT22;26989;45.524;10.938;2024-02-21T14:05:52;15.30;99.90
41256;DHT22;26989;45.524;10.938;2024-02-21T14:08:19;15.40;99.90
41256;DHT22;26989;45.524;10.938;2024-02-21T14:10:46;15.40;99.90
41256;DHT22;26989;45.524;10.938;2024-02-21T14:13:14;15.50;99.90
41256;DHT22;26989;45.524;10.938;2024-02-21T14:15:44;15.30;99.90
41256;DHT22;26989;45.524;10.938;2024-02-21T14:18:13;15.30;99.90
41256;DHT22;26989;45.524;10.938;2024-02-21T14:20:41;15.30;99.90
41256;DHT22;26989;45.524;10.938;2024-02-21T14:23:11;15.30;99.90
41256;DHT22;26989;45.524;10.938;2024-02-21T14:26:11;15.20;99.90
41256;DHT22;26989;45.524;10.938;2024-02-21T14:28:39;15.10;99.90
41256;DHT22;26989;45.524;10.938;2024-02-21T14:31:09;15.10;99.90
41256;DHT22;26989;45.524;10.938;2024-02-21T14:33:37;14.90;99.90
41256;DHT22;26989;45.524;10.938;2024-02-21T14:36:09;14.90;99.90
41256;DHT22;26989;45.524;10.938;2024-02-21T14:38:38;14.90;99.90
41256;DHT22;26989;45.524;10.938;2024-02-21T14:41:08;14.90;99.90
41256;DHT22;26989;45.524;10.938;2024-02-21T14:43:37;14.90;99.90
41256;DHT22;26989;45.524;10.938;2024-02-21T14:46:04;15.00;99.90
41256;DHT22;26989;45.524;10.938;2024-02-21T14:48:32;14.90;99.90
41256;DHT22;26989;45.524;10.938;2024-02-21T14:50:59;14.90;99.90
41256;DHT22;26989;45.524;10.938;2024-02-21T14:53:26;14.90;99.90
41256;DHT22;26989;45.524;10.938;2024-02-21T14:55:53;14.90;99.90
41256;DHT22;26989;45.524;10.938;2024-02-21T14:58:20;14.70;99.90
41256;DHT22;26989;45.524;10.938;2024-02-21T15:00:48;14.60;99.90
41256;DHT22;26989;45.524;10.938;2024-02-21T15:03:16;14.50;99.90
41256;DHT22;26989;45.524;10.938;2024-02-21T15:05:46;14.40;99.90
41256;DHT22;26989;45.524;10.938;2024-02-21T15:08:14;14.40;99.90
41256;DHT22;26989;45.524;10.938;2024-02-21T15:10:43;14.30;99.90
41256;DHT22;26989;45.524;10.938;2024-02-21T15:13:15;14.30;99.90
41256;DHT22;26989;45.524;10.938;2024-02-21T15:15:45;14.20;99.90
41256;DHT22;26989;45.524;10.938;2024-02-21T15:18:16;14.30;99.90
41256;DHT22;26989;45.524;10.938;2024-02-21T15:20:44;14.20;99.90
41256;DHT22;26989;45.524;10.938;2024-02-21T15:23:11;14.10;99.90
41256;DHT22;26989;45.524;10.938;2024-02-21T15:25:39;14.10;99.90
41256;DHT22;26989;45.524;10.938;2024-02-21T15:28:06;14.10;99.90
41256;DHT22;26989;45.524;10.938;2024-02-21T15:30:33;14.10;99.90
41256;DHT22;26989;45.524;10.938;2024-02-21T15:33:00;14.00;99.90